createdAt,value
2018-06-08T00:01:48.065Z,43.23
2018-06-08T00:04:20.498Z,44.07
2018-06-08T00:06:52.897Z,47.50
2018-06-08T00:09:25.074Z,45.07
2018-06-08T00:11:57.276Z,47.70
2018-06-08T00:14:29.827Z,45.43
2018-06-08T00:17:02.037Z,45.63
2018-06-08T00:19:34.578Z,48.47
2018-06-08T00:22:06.556Z,45.67
2018-06-08T00:24:39.841Z,46.23
2018-06-08T00:27:11.710Z,45.60
2018-06-08T00:29:44.980Z,43.23
2018-06-08T00:32:17.131Z,45.40
2018-06-08T00:34:49.374Z,43.27
2018-06-08T00:37:21.235Z,44.73
2018-06-08T00:39:53.692Z,43.73
2018-06-08T00:42:25.783Z,44.10
2018-06-08T00:44:58.525Z,40.63
2018-06-08T00:47:30.821Z,38.90
2018-06-08T00:50:03.349Z,39.50
2018-06-08T00:52:35.511Z,37.50
2018-06-08T00:55:07.833Z,37.07
2018-06-08T00:57:39.758Z,37.10
2018-06-08T01:00:12.196Z,34.20
2018-06-08T01:02:44.318Z,34.97
2018-06-08T01:05:16.511Z,32.90
2018-06-08T01:07:48.179Z,33.77
2018-06-08T01:10:19.972Z,33.80
2018-06-08T01:12:51.629Z,33.53
2018-06-08T01:15:23.047Z,33.77
2018-06-08T01:17:54.817Z,33.87
2018-06-08T01:20:26.078Z,30.40
2018-06-08T01:22:57.604Z,32.53
2018-06-08T01:25:29.283Z,30.40
2018-06-08T01:28:00.971Z,31.23
2018-06-08T01:30:32.567Z,30.43
2018-06-08T01:33:04.056Z,32.30
2018-06-08T01:35:34.976Z,30.63
2018-06-08T01:38:06.458Z,31.00
2018-06-08T01:40:38.785Z,29.97
2018-06-08T01:43:10.443Z,31.10
2018-06-08T01:45:42.469Z,31.13
2018-06-08T01:48:13.823Z,31.67
2018-06-08T01:50:46.810Z,32.50
2018-06-08T01:53:18.453Z,32.37
2018-06-08T01:55:50.241Z,31.70
2018-06-08T01:58:21.809Z,32.30
2018-06-08T02:00:53.860Z,32.17
2018-06-08T02:03:25.683Z,29.93
2018-06-08T02:05:57.559Z,30.23
2018-06-08T02:08:29.003Z,30.63
2018-06-08T02:11:00.658Z,31.20
2018-06-08T02:13:32.410Z,28.93
2018-06-08T02:16:03.988Z,30.83
2018-06-08T02:18:36.118Z,31.83
2018-06-08T02:21:08.182Z,30.30
2018-06-08T02:23:40.327Z,29.13
2018-06-08T02:26:12.053Z,31.80
2018-06-08T02:28:43.537Z,31.00
2018-06-08T02:31:15.615Z,32.47
2018-06-08T02:33:47.606Z,30.80
2018-06-08T02:36:19.271Z,32.97
2018-06-08T02:38:51.322Z,30.90
2018-06-08T02:41:23.133Z,32.23
2018-06-08T02:43:54.745Z,31.10
2018-06-08T02:46:26.503Z,33.53
2018-06-08T02:48:57.851Z,33.80
2018-06-08T02:51:30.959Z,33.40
2018-06-08T02:54:01.734Z,33.33
2018-06-08T02:56:33.385Z,35.20
2018-06-08T02:59:05.070Z,36.33
2018-06-08T03:01:37.085Z,36.60
2018-06-08T03:04:09.005Z,38.20
2018-06-08T03:06:41.338Z,38.53
2018-06-08T03:09:13.097Z,38.23
2018-06-08T03:11:45.766Z,36.53
2018-06-08T03:14:17.323Z,39.83
2018-06-08T03:16:49.145Z,38.63
2018-06-08T03:19:20.834Z,39.53
2018-06-08T03:21:52.530Z,40.20
2018-06-08T03:24:24.219Z,38.37
2018-06-08T03:26:55.204Z,40.57
2018-06-08T03:29:26.800Z,40.60
2018-06-08T03:31:59.119Z,39.43
2018-06-08T03:34:30.964Z,40.33
2018-06-08T03:37:01.942Z,41.10
2018-06-08T03:39:33.570Z,43.07
2018-06-08T03:42:05.191Z,43.97
2018-06-08T03:44:37.168Z,42.07
2018-06-08T03:47:09.470Z,43.97
2018-06-08T03:49:41.069Z,42.03
2018-06-08T03:52:13.452Z,43.67
2018-06-08T03:54:45.125Z,43.50
2018-06-08T03:57:17.075Z,45.80
2018-06-08T03:59:48.571Z,46.23
2018-06-08T04:02:20.419Z,48.40
2018-06-08T04:04:51.150Z,48.50
2018-06-08T04:07:22.079Z,50.30
2018-06-08T04:09:53.836Z,52.40
2018-06-08T04:12:25.456Z,49.77
2018-06-08T04:14:57.128Z,49.70
2018-06-08T04:17:28.850Z,48.63
2018-06-08T04:20:00.496Z,47.30
2018-06-08T04:22:32.523Z,46.67
2018-06-08T04:25:04.260Z,48.23
2018-06-08T04:27:36.203Z,48.80
2018-06-08T04:30:09.553Z,49.67
2018-06-08T04:32:40.875Z,45.57
2018-06-08T04:35:12.555Z,46.20
2018-06-08T04:37:44.729Z,45.60
2018-06-08T04:40:16.309Z,45.27
2018-06-08T04:42:48.531Z,44.70
2018-06-08T04:45:20.187Z,44.17
2018-06-08T04:47:52.045Z,46.40
2018-06-08T04:50:23.471Z,42.63
2018-06-08T04:52:56.337Z,42.03
2018-06-08T04:55:27.264Z,42.90
2018-06-08T04:57:59.321Z,42.20
2018-06-08T05:00:31.103Z,42.97
2018-06-08T05:03:03.253Z,41.97
2018-06-08T05:05:34.977Z,46.43
2018-06-08T05:08:08.071Z,44.43
2018-06-08T05:10:39.939Z,43.60
2018-06-08T05:13:12.200Z,43.13
2018-06-08T05:15:43.862Z,43.68
2018-06-08T05:18:15.232Z,44.10
2018-06-08T05:20:47.686Z,42.27
2018-06-08T05:23:19.827Z,41.25
2018-06-08T05:25:51.708Z,41.25
2018-06-08T05:28:23.604Z,41.55
2018-06-08T05:30:55.773Z,42.60
2018-06-08T05:33:27.966Z,43.43
2018-06-08T05:35:59.736Z,43.52
2018-06-08T05:38:31.487Z,42.53
2018-06-08T05:41:03.103Z,43.02
2018-06-08T05:43:34.909Z,40.48
2018-06-08T05:46:09.547Z,40.83
2018-06-08T05:48:42.187Z,39.05
2018-06-08T05:51:12.593Z,39.58
2018-06-08T05:53:44.301Z,38.70
2018-06-08T05:56:16.107Z,40.12
2018-06-08T05:58:48.149Z,40.43
2018-06-08T06:01:19.949Z,40.45
2018-06-08T06:03:50.759Z,42.03
2018-06-08T06:06:22.450Z,41.48
2018-06-08T06:08:54.400Z,45.10
2018-06-08T06:11:26.489Z,48.13
2018-06-08T06:13:58.256Z,49.85
2018-06-08T06:16:29.930Z,49.23
2018-06-08T06:19:02.040Z,52.15
2018-06-08T06:21:33.612Z,48.53
2018-06-08T06:24:05.362Z,49.75
2018-06-08T06:26:36.964Z,50.12
2018-06-08T06:29:08.728Z,51.05
2018-06-08T06:31:40.152Z,47.30
2018-06-08T06:34:12.039Z,46.15
2018-06-08T06:36:43.688Z,45.67
2018-06-08T06:39:15.479Z,45.85
2018-06-08T06:41:47.222Z,45.60
2018-06-08T06:44:18.879Z,46.00
2018-06-08T06:46:50.531Z,44.10
2018-06-08T06:49:22.213Z,41.45
2018-06-08T06:51:53.938Z,42.85
2018-06-08T06:54:26.576Z,42.65
2018-06-08T06:56:57.450Z,42.65
2018-06-08T06:59:29.150Z,42.90
2018-06-08T07:02:00.850Z,42.27
2018-06-08T07:04:32.406Z,40.85
2018-06-08T07:07:03.858Z,43.52
2018-06-08T07:09:36.816Z,43.63
2018-06-08T07:12:08.324Z,43.25
2018-06-08T07:14:40.577Z,44.25
2018-06-08T07:17:12.437Z,44.50
2018-06-08T07:19:44.931Z,43.95
2018-06-08T07:22:17.613Z,43.73
2018-06-08T07:24:50.404Z,45.60
2018-06-08T07:27:22.655Z,44.70
2018-06-08T07:29:55.642Z,47.15
2018-06-08T07:32:28.336Z,45.98
2018-06-08T07:35:01.213Z,45.85
2018-06-08T07:37:33.663Z,45.40
2018-06-08T07:40:06.301Z,44.63
2018-06-08T07:42:38.910Z,45.75
2018-06-08T07:45:11.227Z,46.20
2018-06-08T07:47:43.391Z,45.25
2018-06-08T07:50:15.684Z,46.35
2018-06-08T07:52:47.819Z,44.05
2018-06-08T07:55:21.329Z,45.28
2018-06-08T07:57:53.365Z,48.00
2018-06-08T08:00:25.834Z,47.27
2018-06-08T08:02:58.069Z,48.10
2018-06-08T08:05:30.511Z,47.23
2018-06-08T08:08:03.020Z,49.38
2018-06-08T08:10:35.927Z,47.25
2018-06-08T08:13:07.963Z,48.92
2018-06-08T08:15:40.384Z,49.45
2018-06-08T08:18:12.889Z,51.50
2018-06-08T08:20:45.575Z,51.73
2018-06-08T08:23:17.286Z,50.60
2018-06-08T08:25:49.256Z,51.70
2018-06-08T08:28:20.980Z,56.80
2018-06-08T08:30:53.685Z,54.17
2018-06-08T08:33:25.257Z,55.67
2018-06-08T08:35:57.045Z,56.37
2018-06-08T08:38:28.594Z,56.10
2018-06-08T08:41:00.408Z,55.50
2018-06-08T08:43:32.624Z,58.83
2018-06-08T08:46:04.407Z,56.07
2018-06-08T08:48:35.938Z,53.73
2018-06-08T08:51:08.517Z,55.10
2018-06-08T08:53:39.486Z,55.23
2018-06-08T08:56:12.291Z,56.77
2018-06-08T08:58:43.902Z,54.33
2018-06-08T09:01:15.835Z,52.17
2018-06-08T09:03:47.601Z,53.37
2018-06-08T09:06:19.551Z,54.70
2018-06-08T09:08:51.254Z,56.07
2018-06-08T09:11:23.414Z,54.90
2018-06-08T09:13:55.168Z,56.97
2018-06-08T09:16:27.123Z,55.80
2018-06-08T09:18:58.807Z,57.90
2018-06-08T09:21:30.611Z,57.93
2018-06-08T09:24:02.437Z,57.63
2018-06-08T09:26:35.125Z,54.90
2018-06-08T09:29:06.568Z,54.13
2018-06-08T09:31:38.251Z,53.27
2018-06-08T09:34:09.885Z,56.10
2018-06-08T09:36:41.692Z,53.50
2018-06-08T09:39:13.207Z,52.03
2018-06-08T09:41:45.158Z,53.73
2018-06-08T09:44:15.751Z,52.03
2018-06-08T09:46:47.611Z,51.23
2018-06-08T09:49:19.310Z,53.47
2018-06-08T09:51:50.590Z,52.90
2018-06-08T09:54:22.092Z,53.23
2018-06-08T09:56:54.799Z,54.73
2018-06-08T09:59:26.300Z,51.73
2018-06-08T10:01:58.254Z,50.30
2018-06-08T10:04:30.175Z,50.80
2018-06-08T10:07:01.236Z,51.00
2018-06-08T10:09:32.816Z,52.23
2018-06-08T10:12:04.444Z,51.27
2018-06-08T10:14:36.036Z,52.10
2018-06-08T10:17:07.945Z,51.77
2018-06-08T10:19:39.456Z,52.60
2018-06-08T10:22:11.071Z,55.70
2018-06-08T10:24:42.724Z,56.00
2018-06-08T10:27:15.195Z,57.50
2018-06-08T10:29:46.735Z,58.90
2018-06-08T10:32:17.988Z,56.97
2018-06-08T10:34:48.538Z,59.90
2018-06-08T10:37:20.203Z,57.87
2018-06-08T10:39:51.817Z,59.23
2018-06-08T10:42:22.988Z,62.67
2018-06-08T10:44:54.515Z,65.73
2018-06-08T10:47:26.402Z,64.90
2018-06-08T10:49:57.902Z,65.70
2018-06-08T10:52:30.100Z,70.37
2018-06-08T10:55:01.832Z,74.70
2018-06-08T10:57:35.428Z,78.60
2018-06-08T11:00:07.854Z,78.97
2018-06-08T11:02:40.121Z,87.20
2018-06-08T11:05:12.071Z,81.93
2018-06-08T11:07:44.132Z,87.30
2018-06-08T11:10:15.893Z,91.33
2018-06-08T11:12:47.648Z,90.10
2018-06-08T11:15:21.844Z,87.07
2018-06-08T11:17:53.749Z,85.70
2018-06-08T11:20:25.490Z,84.70
2018-06-08T11:22:57.359Z,91.33
2018-06-08T11:25:28.991Z,78.33
2018-06-08T11:27:59.941Z,78.37
2018-06-08T11:30:32.122Z,85.80
2018-06-08T11:33:03.973Z,78.57
2018-06-08T11:35:36.052Z,77.23
2018-06-08T11:38:07.406Z,74.83
2018-06-08T11:40:39.190Z,72.70
2018-06-08T11:43:11.871Z,74.93
2018-06-08T11:45:43.580Z,68.97
2018-06-08T11:48:15.675Z,68.97
2018-06-08T11:50:47.148Z,70.60
2018-06-08T11:53:19.028Z,68.93
2018-06-08T11:55:50.626Z,71.90
2018-06-08T11:58:23.443Z,70.33
2018-06-08T12:00:55.324Z,65.07
2018-06-08T12:03:27.283Z,62.70
2018-06-08T12:05:58.881Z,61.80
2018-06-08T12:08:30.808Z,65.53
2018-06-08T12:11:02.471Z,65.33
2018-06-08T12:13:34.329Z,61.97
2018-06-08T12:16:06.024Z,62.43
2018-06-08T12:18:37.962Z,66.33
2018-06-08T12:21:09.479Z,65.67
2018-06-08T12:23:41.166Z,65.67
2018-06-08T12:26:12.801Z,63.53
2018-06-08T12:28:43.648Z,66.77
2018-06-08T12:31:15.017Z,66.10
2018-06-08T12:33:47.084Z,69.37
2018-06-08T12:36:18.904Z,72.00
2018-06-08T12:38:50.194Z,70.73
2018-06-08T12:41:21.820Z,72.70
2018-06-08T12:43:53.712Z,71.27
2018-06-08T12:46:25.532Z,74.00
2018-06-08T12:48:57.652Z,74.70
2018-06-08T12:51:29.163Z,72.33
2018-06-08T12:54:00.327Z,72.23
2018-06-08T12:56:31.808Z,73.27
2018-06-08T12:59:05.439Z,82.53
2018-06-08T13:01:36.901Z,77.87
2018-06-08T13:04:08.045Z,75.30
2018-06-08T13:06:39.618Z,85.67
2018-06-08T13:09:10.794Z,82.47
2018-06-08T13:11:42.990Z,83.10
2018-06-08T13:14:15.275Z,86.63
2018-06-08T13:16:47.022Z,86.40
2018-06-08T13:19:19.275Z,85.93
2018-06-08T13:21:50.981Z,83.67
2018-06-08T13:24:22.636Z,85.27
2018-06-08T13:26:53.243Z,85.33
2018-06-08T13:29:25.043Z,86.37
2018-06-08T13:31:56.494Z,85.93
2018-06-08T13:34:28.374Z,86.80
2018-06-08T13:36:59.823Z,84.73
2018-06-08T13:39:31.683Z,83.03
2018-06-08T13:42:03.362Z,86.30
2018-06-08T13:44:35.422Z,86.30
2018-06-08T13:47:07.523Z,85.10
2018-06-08T13:49:39.151Z,81.60
2018-06-08T13:52:10.999Z,86.53
2018-06-08T13:54:42.978Z,89.27
2018-06-08T13:57:14.677Z,88.00
2018-06-08T13:59:46.626Z,86.07
2018-06-08T14:02:18.857Z,91.63
2018-06-08T14:04:51.167Z,87.47
2018-06-08T14:07:23.218Z,98.10
2018-06-08T14:09:55.335Z,95.30
2018-06-08T14:12:27.100Z,94.03
2018-06-08T14:14:59.017Z,90.17
2018-06-08T14:17:30.762Z,94.07
2018-06-08T14:20:02.843Z,95.37
2018-06-08T14:22:34.545Z,106.33
2018-06-08T14:25:06.157Z,101.13
2018-06-08T14:27:38.276Z,101.40
2018-06-08T14:30:10.388Z,99.63
2018-06-08T14:32:41.936Z,100.17
2018-06-08T14:35:13.678Z,101.67
2018-06-08T14:37:45.402Z,107.57
2018-06-08T14:40:17.096Z,105.03
2018-06-08T14:42:48.985Z,107.20
2018-06-08T14:45:21.075Z,112.07
2018-06-08T14:47:51.976Z,109.17
2018-06-08T14:50:24.009Z,103.37
2018-06-08T14:52:55.680Z,104.70
2018-06-08T14:55:27.230Z,105.67
2018-06-08T14:57:58.963Z,113.67
2018-06-08T15:00:31.883Z,118.17
2018-06-08T15:03:03.392Z,118.37
2018-06-08T15:05:35.502Z,118.50
2018-06-08T15:08:07.697Z,121.27
2018-06-08T15:10:39.730Z,123.97
2018-06-08T15:13:11.506Z,129.50
2018-06-08T15:15:43.224Z,122.30
2018-06-08T15:18:14.780Z,118.83
2018-06-08T15:20:45.751Z,120.00
2018-06-08T15:23:17.305Z,121.20
2018-06-08T15:25:49.192Z,120.80
2018-06-08T15:28:20.703Z,113.73
2018-06-08T15:30:52.418Z,116.57
2018-06-08T15:33:24.196Z,107.27
2018-06-08T15:35:56.228Z,109.73
2018-06-08T15:38:27.939Z,104.23
2018-06-08T15:40:59.563Z,110.20
2018-06-08T15:43:31.061Z,106.50
2018-06-08T15:46:03.069Z,108.97
2018-06-08T15:48:33.894Z,108.50
2018-06-08T15:51:06.279Z,113.67
2018-06-08T15:53:38.016Z,117.20
2018-06-08T15:56:09.762Z,121.43
2018-06-08T15:58:41.272Z,124.70
2018-06-08T16:01:13.567Z,124.90
2018-06-08T16:03:45.186Z,122.77
2018-06-08T16:06:17.325Z,126.77
2018-06-08T16:08:48.898Z,122.97
2018-06-08T16:11:20.924Z,129.53
2018-06-08T16:13:52.723Z,126.07
2018-06-08T16:16:24.658Z,128.67
2018-06-08T16:18:56.291Z,127.10
2018-06-08T16:21:27.403Z,129.70
2018-06-08T16:23:58.795Z,119.20
2018-06-08T16:26:30.519Z,120.57
2018-06-08T16:29:02.591Z,120.57
2018-06-08T16:31:34.748Z,121.03
2018-06-08T16:34:06.591Z,117.20
2018-06-08T16:36:38.332Z,118.20
2018-06-08T16:39:10.431Z,114.53
2018-06-08T16:41:42.279Z,118.70
2018-06-08T16:44:13.923Z,116.00
2018-06-08T16:46:45.637Z,113.73
2018-06-08T16:49:19.961Z,120.97
2018-06-08T16:51:51.007Z,122.77
2018-06-08T16:54:21.701Z,120.87
2018-06-08T16:56:54.131Z,128.00
2018-06-08T16:59:25.750Z,121.57
2018-06-08T17:01:58.748Z,128.77
2018-06-08T17:04:30.645Z,126.33
2018-06-08T17:07:02.576Z,123.00
2018-06-08T17:09:34.059Z,121.47
2018-06-08T17:12:06.241Z,124.23
2018-06-08T17:14:37.801Z,127.97
2018-06-08T17:17:10.023Z,122.50
2018-06-08T17:19:41.533Z,127.30
2018-06-08T17:22:13.442Z,124.77
2018-06-08T17:24:45.035Z,129.20
2018-06-08T17:27:19.521Z,131.93
2018-06-08T17:29:51.311Z,126.23
2018-06-08T17:32:23.500Z,133.03
2018-06-08T17:34:55.227Z,131.27
2018-06-08T17:37:27.366Z,129.90
2018-06-08T17:39:58.910Z,126.67
2018-06-08T17:42:30.837Z,126.70
2018-06-08T17:45:02.375Z,131.93
2018-06-08T17:47:34.075Z,134.03
2018-06-08T17:50:05.554Z,134.73
2018-06-08T17:52:37.774Z,132.90
2018-06-08T17:55:09.407Z,133.97
2018-06-08T17:57:42.862Z,131.80
2018-06-08T18:00:14.422Z,136.67
2018-06-08T18:02:47.404Z,140.43
2018-06-08T18:05:18.881Z,143.70
2018-06-08T18:07:49.746Z,143.90
2018-06-08T18:10:21.364Z,137.67
2018-06-08T18:12:53.154Z,143.33
2018-06-08T18:15:25.074Z,142.90
2018-06-08T18:17:57.072Z,143.60
2018-06-08T18:20:28.973Z,147.43
2018-06-08T18:23:01.118Z,143.80
2018-06-08T18:25:33.080Z,138.43
2018-06-08T18:28:04.559Z,142.93
2018-06-08T18:30:36.220Z,150.83
2018-06-08T18:33:08.945Z,154.67
2018-06-08T18:35:39.597Z,154.00
2018-06-08T18:38:11.297Z,157.90
2018-06-08T18:40:42.964Z,160.43
2018-06-08T18:43:15.194Z,175.40
2018-06-08T18:45:49.463Z,175.20
2018-06-08T18:48:20.907Z,175.67
2018-06-08T18:50:52.520Z,177.20
2018-06-08T18:53:24.453Z,176.53
2018-06-08T18:55:55.356Z,181.13
2018-06-08T18:58:27.072Z,181.30
2018-06-08T19:00:58.600Z,191.77
2018-06-08T19:03:32.227Z,191.57
2018-06-08T19:06:03.914Z,183.03
2018-06-08T19:08:35.883Z,193.37
2018-06-08T19:11:07.460Z,196.90
2018-06-08T19:13:39.156Z,193.13
2018-06-08T19:16:10.779Z,175.37
2018-06-08T19:18:42.729Z,183.33
2018-06-08T19:21:15.588Z,180.53
2018-06-08T19:23:47.640Z,180.77
2018-06-08T19:26:19.503Z,187.00
2018-06-08T19:28:50.344Z,179.10
2018-06-08T19:31:22.377Z,184.30
2018-06-08T19:33:54.778Z,179.40
2018-06-08T19:36:26.314Z,180.93
2018-06-08T19:38:58.557Z,175.23
2018-06-08T19:41:30.455Z,166.90
2018-06-08T19:44:01.749Z,164.97
2018-06-08T19:46:33.354Z,165.83
2018-06-08T19:49:05.215Z,164.47
2018-06-08T19:51:36.810Z,161.03
2018-06-08T19:54:08.567Z,156.70
2018-06-08T19:56:40.481Z,159.10
2018-06-08T19:59:12.754Z,159.83
2018-06-08T20:01:45.028Z,161.63
2018-06-08T20:04:18.164Z,159.80
2018-06-08T20:06:49.591Z,158.47
2018-06-08T20:09:20.382Z,157.93
2018-06-08T20:11:51.849Z,158.27
2018-06-08T20:14:23.730Z,155.17
2018-06-08T20:16:55.423Z,161.53
2018-06-08T20:19:27.452Z,155.90
2018-06-08T20:21:59.154Z,159.03
2018-06-08T20:24:31.339Z,159.17
2018-06-08T20:27:03.035Z,156.77
2018-06-08T20:29:34.959Z,161.60
2018-06-08T20:32:07.452Z,155.23
2018-06-08T20:34:39.318Z,153.57
2018-06-08T20:37:10.902Z,155.13
2018-06-08T20:39:42.983Z,147.90
2018-06-08T20:42:14.678Z,150.60
2018-06-08T20:44:46.938Z,145.67
2018-06-08T20:47:18.780Z,145.33
2018-06-08T20:49:50.266Z,146.93
2018-06-08T20:52:21.943Z,134.70
2018-06-08T20:54:53.679Z,135.10
2018-06-08T20:57:29.528Z,131.47
2018-06-08T21:00:01.149Z,133.97
2018-06-08T21:02:32.874Z,139.57
2018-06-08T21:05:06.048Z,139.43
2018-06-08T21:07:37.707Z,145.60
2018-06-08T21:10:09.819Z,141.73
2018-06-08T21:12:41.371Z,143.77
2018-06-08T21:15:13.329Z,142.30
2018-06-08T21:17:45.027Z,135.33
2018-06-08T21:20:16.796Z,141.23
2018-06-08T21:22:48.470Z,147.57
2018-06-08T21:25:20.503Z,145.07
2018-06-08T21:27:52.095Z,142.00
2018-06-08T21:30:23.950Z,135.33
2018-06-08T21:32:55.427Z,135.60
2018-06-08T21:35:28.381Z,130.00
2018-06-08T21:38:00.087Z,128.30
2018-06-08T21:40:31.775Z,134.47
2018-06-08T21:43:03.369Z,136.97
2018-06-08T21:45:35.136Z,134.33
2018-06-08T21:48:06.726Z,139.30
2018-06-08T21:50:38.464Z,145.90
2018-06-08T21:53:10.091Z,137.43
2018-06-08T21:55:42.028Z,140.33
2018-06-08T21:58:13.518Z,137.53
2018-06-08T22:00:45.432Z,137.30
2018-06-08T22:03:17.159Z,136.43
2018-06-08T22:05:49.319Z,136.67
2018-06-08T22:08:19.936Z,140.33
2018-06-08T22:10:51.619Z,144.00
2018-06-08T22:13:23.256Z,138.83
2018-06-08T22:15:55.742Z,140.87
2018-06-08T22:18:27.172Z,134.70
2018-06-08T22:20:59.100Z,144.90
2018-06-08T22:23:31.103Z,145.17
2018-06-08T22:26:03.448Z,146.43
2018-06-08T22:28:34.873Z,150.53
2018-06-08T22:31:06.882Z,155.00
2018-06-08T22:33:38.597Z,157.63
2018-06-08T22:36:10.829Z,162.53
2018-06-08T22:38:42.319Z,161.87
2018-06-08T22:41:14.274Z,165.03
2018-06-08T22:43:45.888Z,174.10
2018-06-08T22:46:16.984Z,179.23
2018-06-08T22:48:48.479Z,179.60
2018-06-08T22:51:20.416Z,179.67
2018-06-08T22:53:51.844Z,171.80
2018-06-08T22:56:23.620Z,178.33
2018-06-08T22:58:55.323Z,174.67
2018-06-08T23:01:27.235Z,181.50
2018-06-08T23:03:58.687Z,166.93
2018-06-08T23:06:30.660Z,172.33
2018-06-08T23:09:02.197Z,169.03
2018-06-08T23:11:34.228Z,160.10
2018-06-08T23:14:06.024Z,163.50
2018-06-08T23:16:37.688Z,157.13
2018-06-08T23:19:09.184Z,155.40
2018-06-08T23:21:41.155Z,157.67
2018-06-08T23:24:12.782Z,154.10
2018-06-08T23:26:44.905Z,149.70
2018-06-08T23:29:16.341Z,148.27
2018-06-08T23:31:48.509Z,154.43
2018-06-08T23:34:20.227Z,149.60
2018-06-08T23:36:52.201Z,148.17
2018-06-08T23:39:23.693Z,149.57
2018-06-08T23:41:56.266Z,152.93
2018-06-08T23:44:27.720Z,150.70
2018-06-08T23:46:59.528Z,147.30
2018-06-08T23:49:31.187Z,146.33
2018-06-08T23:52:02.791Z,142.77
2018-06-08T23:54:34.768Z,146.80
2018-06-08T23:57:06.171Z,144.03
2018-06-08T23:59:37.894Z,143.30
